sensor_id;sensor_type;location;lat;lon;timestamp;temperature;humidity
12901;DHT22;6518;50.930;5.344;2023-04-03T00:01:28;4.80;86.10
12901;DHT22;6518;50.930;5.344;2023-04-03T00:03:55;4.80;86.20
12901;DHT22;6518;50.930;5.344;2023-04-03T00:06:22;4.70;86.10
12901;DHT22;6518;50.930;5.344;2023-04-03T00:08:49;4.70;86.10
12901;DHT22;6518;50.930;5.344;2023-04-03T00:11:18;4.70;86.40
12901;DHT22;6518;50.930;5.344;2023-04-03T00:13:45;4.70;86.50
12901;DHT22;6518;50.930;5.344;2023-04-03T00:16:13;4.60;86.30
12901;DHT22;6518;50.930;5.344;2023-04-03T00:18:40;4.60;86.50
12901;DHT22;6518;50.930;5.344;2023-04-03T00:21:09;4.60;86.40
12901;DHT22;6518;50.930;5.344;2023-04-03T00:23:36;4.60;86.60
12901;DHT22;6518;50.930;5.344;2023-04-03T00:26:03;4.60;87.30
12901;DHT22;6518;50.930;5.344;2023-04-03T00:28:31;4.60;86.70
12901;DHT22;6518;50.930;5.344;2023-04-03T00:30:58;4.60;86.80
12901;DHT22;6518;50.930;5.344;2023-04-03T00:33:25;4.50;86.80
12901;DHT22;6518;50.930;5.344;2023-04-03T00:35:52;4.50;86.80
12901;DHT22;6518;50.930;5.344;2023-04-03T00:38:19;4.50;86.80
12901;DHT22;6518;50.930;5.344;2023-04-03T00:40:47;4.50;86.90
12901;DHT22;6518;50.930;5.344;2023-04-03T00:43:17;4.50;86.90
12901;DHT22;6518;50.930;5.344;2023-04-03T00:45:47;4.50;87.00
12901;DHT22;6518;50.930;5.344;2023-04-03T00:48:16;4.40;86.80
12901;DHT22;6518;50.930;5.344;2023-04-03T00:50:45;4.40;86.80
12901;DHT22;6518;50.930;5.344;2023-04-03T00:53:16;4.40;86.90
12901;DHT22;6518;50.930;5.344;2023-04-03T00:55:46;4.40;87.00
12901;DHT22;6518;50.930;5.344;2023-04-03T00:58:13;4.30;87.20
12901;DHT22;6518;50.930;5.344;2023-04-03T01:00:46;4.30;87.40
12901;DHT22;6518;50.930;5.344;2023-04-03T01:03:14;4.30;87.50
12901;DHT22;6518;50.930;5.344;2023-04-03T01:05:41;4.30;87.40
12901;DHT22;6518;50.930;5.344;2023-04-03T01:08:08;4.30;87.60
12901;DHT22;6518;50.930;5.344;2023-04-03T01:10:35;4.20;87.50
12901;DHT22;6518;50.930;5.344;2023-04-03T01:13:01;4.20;87.70
12901;DHT22;6518;50.930;5.344;2023-04-03T01:15:43;4.30;87.80
12901;DHT22;6518;50.930;5.344;2023-04-03T01:18:11;4.20;87.90
12901;DHT22;6518;50.930;5.344;2023-04-03T01:21:16;4.20;88.00
12901;DHT22;6518;50.930;5.344;2023-04-03T01:24:02;4.20;88.00
12901;DHT22;6518;50.930;5.344;2023-04-03T01:26:33;4.20;87.90
12901;DHT22;6518;50.930;5.344;2023-04-03T01:29:01;4.10;87.90
12901;DHT22;6518;50.930;5.344;2023-04-03T01:31:31;4.10;88.10
12901;DHT22;6518;50.930;5.344;2023-04-03T01:34:02;4.10;88.10
12901;DHT22;6518;50.930;5.344;2023-04-03T01:36:30;4.10;88.20
12901;DHT22;6518;50.930;5.344;2023-04-03T01:38:58;4.10;88.30
12901;DHT22;6518;50.930;5.344;2023-04-03T01:41:26;4.00;88.20
12901;DHT22;6518;50.930;5.344;2023-04-03T01:43:53;4.00;88.60
12901;DHT22;6518;50.930;5.344;2023-04-03T01:46:20;4.00;88.60
12901;DHT22;6518;50.930;5.344;2023-04-03T01:48:47;4.00;88.60
12901;DHT22;6518;50.930;5.344;2023-04-03T01:51:16;4.00;88.70
12901;DHT22;6518;50.930;5.344;2023-04-03T01:53:43;4.00;88.60
12901;DHT22;6518;50.930;5.344;2023-04-03T01:56:10;3.90;88.70
12901;DHT22;6518;50.930;5.344;2023-04-03T01:58:36;3.90;89.00
12901;DHT22;6518;50.930;5.344;2023-04-03T02:01:03;3.90;89.00
12901;DHT22;6518;50.930;5.344;2023-04-03T02:03:30;3.90;89.00
12901;DHT22;6518;50.930;5.344;2023-04-03T02:05:58;3.90;89.20
12901;DHT22;6518;50.930;5.344;2023-04-03T02:08:26;3.90;89.20
12901;DHT22;6518;50.930;5.344;2023-04-03T02:10:53;3.90;89.30
12901;DHT22;6518;50.930;5.344;2023-04-03T02:13:19;3.90;89.30
12901;DHT22;6518;50.930;5.344;2023-04-03T02:15:46;3.80;89.40
12901;DHT22;6518;50.930;5.344;2023-04-03T02:18:15;3.80;89.40
12901;DHT22;6518;50.930;5.344;2023-04-03T02:20:42;3.80;89.50
12901;DHT22;6518;50.930;5.344;2023-04-03T02:23:08;3.80;89.80
12901;DHT22;6518;50.930;5.344;2023-04-03T02:25:37;3.80;89.90
12901;DHT22;6518;50.930;5.344;2023-04-03T02:28:04;3.70;90.00
12901;DHT22;6518;50.930;5.344;2023-04-03T02:30:31;3.70;90.00
12901;DHT22;6518;50.930;5.344;2023-04-03T02:32:57;3.70;90.10
12901;DHT22;6518;50.930;5.344;2023-04-03T02:35:24;3.60;90.10
12901;DHT22;6518;50.930;5.344;2023-04-03T02:37:51;3.60;90.30
12901;DHT22;6518;50.930;5.344;2023-04-03T02:40:18;3.60;90.30
12901;DHT22;6518;50.930;5.344;2023-04-03T02:42:46;3.60;90.40
12901;DHT22;6518;50.930;5.344;2023-04-03T02:45:15;3.60;90.40
12901;DHT22;6518;50.930;5.344;2023-04-03T02:47:42;3.60;90.40
12901;DHT22;6518;50.930;5.344;2023-04-03T02:50:09;3.50;90.40
12901;DHT22;6518;50.930;5.344;2023-04-03T02:52:36;3.50;90.80
12901;DHT22;6518;50.930;5.344;2023-04-03T02:55:03;3.50;90.80
12901;DHT22;6518;50.930;5.344;2023-04-03T02:57:30;3.50;90.90
12901;DHT22;6518;50.930;5.344;2023-04-03T02:59:58;3.50;91.00
12901;DHT22;6518;50.930;5.344;2023-04-03T03:02:25;3.50;91.10
12901;DHT22;6518;50.930;5.344;2023-04-03T03:04:52;3.50;91.20
12901;DHT22;6518;50.930;5.344;2023-04-03T03:07:19;3.50;91.30
12901;DHT22;6518;50.930;5.344;2023-04-03T03:09:45;3.50;91.30
12901;DHT22;6518;50.930;5.344;2023-04-03T03:12:12;3.50;91.50
12901;DHT22;6518;50.930;5.344;2023-04-03T03:14:39;3.50;91.40
12901;DHT22;6518;50.930;5.344;2023-04-03T03:17:07;3.50;91.40
12901;DHT22;6518;50.930;5.344;2023-04-03T03:19:34;3.40;91.50
12901;DHT22;6518;50.930;5.344;2023-04-03T03:22:00;3.40;91.90
12901;DHT22;6518;50.930;5.344;2023-04-03T03:24:27;3.30;92.10
12901;DHT22;6518;50.930;5.344;2023-04-03T03:26:55;3.30;92.10
12901;DHT22;6518;50.930;5.344;2023-04-03T03:29:22;3.20;92.20
12901;DHT22;6518;50.930;5.344;2023-04-03T03:31:48;3.20;92.30
12901;DHT22;6518;50.930;5.344;2023-04-03T03:34:16;3.20;92.40
12901;DHT22;6518;50.930;5.344;2023-04-03T03:36:43;3.20;92.60
12901;DHT22;6518;50.930;5.344;2023-04-03T03:39:10;3.10;92.70
12901;DHT22;6518;50.930;5.344;2023-04-03T03:41:37;3.10;92.80
12901;DHT22;6518;50.930;5.344;2023-04-03T03:44:04;3.10;93.00
12901;DHT22;6518;50.930;5.344;2023-04-03T03:46:31;3.10;93.00
12901;DHT22;6518;50.930;5.344;2023-04-03T03:48:57;3.10;93.50
12901;DHT22;6518;50.930;5.344;2023-04-03T03:51:25;3.10;93.40
12901;DHT22;6518;50.930;5.344;2023-04-03T03:53:52;3.20;93.80
12901;DHT22;6518;50.930;5.344;2023-04-03T03:56:19;3.10;93.60
12901;DHT22;6518;50.930;5.344;2023-04-03T03:58:46;3.10;93.70
12901;DHT22;6518;50.930;5.344;2023-04-03T04:01:13;3.10;93.80
12901;DHT22;6518;50.930;5.344;2023-04-03T04:03:41;3.10;94.00
12901;DHT22;6518;50.930;5.344;2023-04-03T04:06:07;3.10;94.00
12901;DHT22;6518;50.930;5.344;2023-04-03T04:08:36;3.10;94.20
12901;DHT22;6518;50.930;5.344;2023-04-03T04:11:03;3.10;94.30
12901;DHT22;6518;50.930;5.344;2023-04-03T04:13:30;3.00;94.50
12901;DHT22;6518;50.930;5.344;2023-04-03T04:15:57;3.00;94.60
12901;DHT22;6518;50.930;5.344;2023-04-03T04:18:24;3.00;94.90
12901;DHT22;6518;50.930;5.344;2023-04-03T04:20:50;2.90;95.00
12901;DHT22;6518;50.930;5.344;2023-04-03T04:23:18;2.90;95.30
12901;DHT22;6518;50.930;5.344;2023-04-03T04:25:46;2.90;95.50
12901;DHT22;6518;50.930;5.344;2023-04-03T04:28:14;2.80;95.70
12901;DHT22;6518;50.930;5.344;2023-04-03T04:30:42;2.90;96.00
12901;DHT22;6518;50.930;5.344;2023-04-03T04:33:09;2.90;96.00
12901;DHT22;6518;50.930;5.344;2023-04-03T04:35:35;2.90;96.00
12901;DHT22;6518;50.930;5.344;2023-04-03T04:38:02;2.90;96.10
12901;DHT22;6518;50.930;5.344;2023-04-03T04:40:30;2.80;96.20
12901;DHT22;6518;50.930;5.344;2023-04-03T04:42:58;2.80;96.20
12901;DHT22;6518;50.930;5.344;2023-04-03T04:45:25;2.80;96.60
12901;DHT22;6518;50.930;5.344;2023-04-03T04:47:53;2.70;96.70
12901;DHT22;6518;50.930;5.344;2023-04-03T04:50:21;2.70;96.80
12901;DHT22;6518;50.930;5.344;2023-04-03T04:52:47;2.70;96.80
12901;DHT22;6518;50.930;5.344;2023-04-03T04:55:14;2.70;97.10
12901;DHT22;6518;50.930;5.344;2023-04-03T04:57:41;2.70;97.30
12901;DHT22;6518;50.930;5.344;2023-04-03T05:00:11;2.70;97.60
12901;DHT22;6518;50.930;5.344;2023-04-03T05:02:38;2.70;98.00
12901;DHT22;6518;50.930;5.344;2023-04-03T05:05:06;2.70;98.10
12901;DHT22;6518;50.930;5.344;2023-04-03T05:07:33;2.70;98.00
12901;DHT22;6518;50.930;5.344;2023-04-03T05:10:01;2.70;98.20
12901;DHT22;6518;50.930;5.344;2023-04-03T05:12:29;2.70;98.80
12901;DHT22;6518;50.930;5.344;2023-04-03T05:14:55;2.70;98.50
12901;DHT22;6518;50.930;5.344;2023-04-03T05:17:28;2.70;98.60
12901;DHT22;6518;50.930;5.344;2023-04-03T05:19:55;2.70;99.00
12901;DHT22;6518;50.930;5.344;2023-04-03T05:22:24;2.70;99.50
12901;DHT22;6518;50.930;5.344;2023-04-03T05:24:51;2.70;99.70
12901;DHT22;6518;50.930;5.344;2023-04-03T05:27:18;2.70;99.70
12901;DHT22;6518;50.930;5.344;2023-04-03T05:29:45;2.70;99.90
12901;DHT22;6518;50.930;5.344;2023-04-03T05:32:12;2.70;99.90
12901;DHT22;6518;50.930;5.344;2023-04-03T05:34:40;2.70;99.90
12901;DHT22;6518;50.930;5.344;2023-04-03T05:37:06;2.80;99.90
12901;DHT22;6518;50.930;5.344;2023-04-03T05:39:33;2.80;99.90
12901;DHT22;6518;50.930;5.344;2023-04-03T05:42:00;2.80;99.90
12901;DHT22;6518;50.930;5.344;2023-04-03T05:44:27;2.80;99.90
12901;DHT22;6518;50.930;5.344;2023-04-03T05:46:54;2.80;99.90
12901;DHT22;6518;50.930;5.344;2023-04-03T05:49:20;2.80;99.90
12901;DHT22;6518;50.930;5.344;2023-04-03T05:51:49;2.80;99.90
12901;DHT22;6518;50.930;5.344;2023-04-03T05:54:19;2.90;99.90
12901;DHT22;6518;50.930;5.344;2023-04-03T05:56:48;2.90;99.90
12901;DHT22;6518;50.930;5.344;2023-04-03T05:59:15;2.90;99.90
12901;DHT22;6518;50.930;5.344;2023-04-03T06:01:42;3.00;99.90
12901;DHT22;6518;50.930;5.344;2023-04-03T06:04:09;3.00;99.90
12901;DHT22;6518;50.930;5.344;2023-04-03T06:06:47;3.00;99.90
12901;DHT22;6518;50.930;5.344;2023-04-03T06:09:16;3.10;99.90
12901;DHT22;6518;50.930;5.344;2023-04-03T06:11:43;3.10;99.90
12901;DHT22;6518;50.930;5.344;2023-04-03T06:14:11;3.20;99.90
12901;DHT22;6518;50.930;5.344;2023-04-03T06:16:39;2.70;99.90
12901;DHT22;6518;50.930;5.344;2023-04-03T06:19:06;3.30;99.90
12901;DHT22;6518;50.930;5.344;2023-04-03T06:21:33;3.30;99.90
12901;DHT22;6518;50.930;5.344;2023-04-03T06:24:01;3.40;99.90
12901;DHT22;6518;50.930;5.344;2023-04-03T06:26:29;3.40;99.90
12901;DHT22;6518;50.930;5.344;2023-04-03T06:28:56;3.50;99.90
12901;DHT22;6518;50.930;5.344;2023-04-03T06:31:23;3.50;99.90
12901;DHT22;6518;50.930;5.344;2023-04-03T06:33:50;3.60;99.90
12901;DHT22;6518;50.930;5.344;2023-04-03T06:36:18;3.70;99.90
12901;DHT22;6518;50.930;5.344;2023-04-03T06:38:46;3.80;99.80
12901;DHT22;6518;50.930;5.344;2023-04-03T06:41:14;3.80;98.50
12901;DHT22;6518;50.930;5.344;2023-04-03T06:43:43;3.90;97.70
12901;DHT22;6518;50.930;5.344;2023-04-03T06:46:14;3.90;97.70
12901;DHT22;6518;50.930;5.344;2023-04-03T06:48:42;4.00;96.90
12901;DHT22;6518;50.930;5.344;2023-04-03T06:51:15;4.00;95.80
12901;DHT22;6518;50.930;5.344;2023-04-03T06:53:43;4.10;95.20
12901;DHT22;6518;50.930;5.344;2023-04-03T06:56:10;4.20;94.80
12901;DHT22;6518;50.930;5.344;2023-04-03T06:58:37;4.20;94.30
12901;DHT22;6518;50.930;5.344;2023-04-03T07:01:05;4.20;94.20
12901;DHT22;6518;50.930;5.344;2023-04-03T07:03:32;4.30;94.00
12901;DHT22;6518;50.930;5.344;2023-04-03T07:05:58;4.30;93.50
12901;DHT22;6518;50.930;5.344;2023-04-03T07:08:25;4.40;93.40
12901;DHT22;6518;50.930;5.344;2023-04-03T07:10:52;4.40;92.80
12901;DHT22;6518;50.930;5.344;2023-04-03T07:13:19;4.50;92.40
12901;DHT22;6518;50.930;5.344;2023-04-03T07:15:46;4.50;91.90
12901;DHT22;6518;50.930;5.344;2023-04-03T07:18:15;4.60;91.60
12901;DHT22;6518;50.930;5.344;2023-04-03T07:20:42;4.60;91.30
12901;DHT22;6518;50.930;5.344;2023-04-03T07:23:09;4.70;91.50
12901;DHT22;6518;50.930;5.344;2023-04-03T07:25:36;4.70;91.20
12901;DHT22;6518;50.930;5.344;2023-04-03T07:28:03;4.80;91.20
12901;DHT22;6518;50.930;5.344;2023-04-03T07:30:30;4.80;91.20
12901;DHT22;6518;50.930;5.344;2023-04-03T07:32:57;4.90;91.20
12901;DHT22;6518;50.930;5.344;2023-04-03T07:35:25;4.90;91.30
12901;DHT22;6518;50.930;5.344;2023-04-03T07:37:52;5.00;90.80
12901;DHT22;6518;50.930;5.344;2023-04-03T07:40:19;5.10;90.40
12901;DHT22;6518;50.930;5.344;2023-04-03T07:42:46;5.10;90.20
12901;DHT22;6518;50.930;5.344;2023-04-03T07:45:13;5.20;88.40
12901;DHT22;6518;50.930;5.344;2023-04-03T07:47:40;5.20;87.80
12901;DHT22;6518;50.930;5.344;2023-04-03T07:50:08;5.30;88.10
12901;DHT22;6518;50.930;5.344;2023-04-03T07:52:36;5.40;87.80
12901;DHT22;6518;50.930;5.344;2023-04-03T07:55:03;5.40;87.80
12901;DHT22;6518;50.930;5.344;2023-04-03T07:57:30;5.50;88.00
12901;DHT22;6518;50.930;5.344;2023-04-03T07:59:57;5.50;86.00
12901;DHT22;6518;50.930;5.344;2023-04-03T08:02:28;5.60;85.50
12901;DHT22;6518;50.930;5.344;2023-04-03T08:05:00;5.70;84.70
12901;DHT22;6518;50.930;5.344;2023-04-03T08:07:27;5.80;84.00
12901;DHT22;6518;50.930;5.344;2023-04-03T08:09:56;5.80;82.80
12901;DHT22;6518;50.930;5.344;2023-04-03T08:12:23;5.90;82.10
12901;DHT22;6518;50.930;5.344;2023-04-03T08:14:50;6.00;81.50
12901;DHT22;6518;50.930;5.344;2023-04-03T08:17:17;6.00;80.50
12901;DHT22;6518;50.930;5.344;2023-04-03T08:19:43;6.00;79.80
12901;DHT22;6518;50.930;5.344;2023-04-03T08:22:10;6.00;79.90
12901;DHT22;6518;50.930;5.344;2023-04-03T08:24:37;6.00;80.20
12901;DHT22;6518;50.930;5.344;2023-04-03T08:27:05;6.10;79.60
12901;DHT22;6518;50.930;5.344;2023-04-03T08:29:32;6.20;78.80
12901;DHT22;6518;50.930;5.344;2023-04-03T08:31:58;6.20;78.20
12901;DHT22;6518;50.930;5.344;2023-04-03T08:34:25;6.20;78.90
12901;DHT22;6518;50.930;5.344;2023-04-03T08:36:52;6.30;78.70
12901;DHT22;6518;50.930;5.344;2023-04-03T08:39:19;6.40;77.90
12901;DHT22;6518;50.930;5.344;2023-04-03T08:41:46;6.50;77.80
12901;DHT22;6518;50.930;5.344;2023-04-03T08:44:24;6.50;77.60
12901;DHT22;6518;50.930;5.344;2023-04-03T08:47:09;6.60;77.60
12901;DHT22;6518;50.930;5.344;2023-04-03T08:49:40;6.60;76.30
12901;DHT22;6518;50.930;5.344;2023-04-03T08:52:14;6.70;75.10
12901;DHT22;6518;50.930;5.344;2023-04-03T08:54:49;6.80;73.90
12901;DHT22;6518;50.930;5.344;2023-04-03T08:57:17;6.80;73.70
12901;DHT22;6518;50.930;5.344;2023-04-03T08:59:45;6.80;73.60
12901;DHT22;6518;50.930;5.344;2023-04-03T09:02:23;6.90;74.40
12901;DHT22;6518;50.930;5.344;2023-04-03T09:04:52;7.00;73.70
12901;DHT22;6518;50.930;5.344;2023-04-03T09:07:23;7.00;73.20
12901;DHT22;6518;50.930;5.344;2023-04-03T09:09:53;7.10;72.60
12901;DHT22;6518;50.930;5.344;2023-04-03T09:12:23;7.10;72.40
12901;DHT22;6518;50.930;5.344;2023-04-03T09:14:59;7.20;72.00
12901;DHT22;6518;50.930;5.344;2023-04-03T09:17:37;7.30;71.90
12901;DHT22;6518;50.930;5.344;2023-04-03T09:20:14;7.30;70.80
12901;DHT22;6518;50.930;5.344;2023-04-03T09:22:44;7.40;70.40
12901;DHT22;6518;50.930;5.344;2023-04-03T09:25:14;7.40;70.80
12901;DHT22;6518;50.930;5.344;2023-04-03T09:27:42;7.40;70.40
12901;DHT22;6518;50.930;5.344;2023-04-03T09:30:15;7.50;69.40
12901;DHT22;6518;50.930;5.344;2023-04-03T09:32:44;7.50;68.80
12901;DHT22;6518;50.930;5.344;2023-04-03T09:35:18;7.60;68.70
12901;DHT22;6518;50.930;5.344;2023-04-03T09:37:48;7.60;68.20
12901;DHT22;6518;50.930;5.344;2023-04-03T09:40:31;7.70;67.80
12901;DHT22;6518;50.930;5.344;2023-04-03T09:43:01;7.80;64.70
12901;DHT22;6518;50.930;5.344;2023-04-03T09:45:31;7.80;63.20
12901;DHT22;6518;50.930;5.344;2023-04-03T09:48:07;7.80;62.90
12901;DHT22;6518;50.930;5.344;2023-04-03T09:50:35;7.90;64.10
12901;DHT22;6518;50.930;5.344;2023-04-03T09:53:05;7.90;64.00
12901;DHT22;6518;50.930;5.344;2023-04-03T09:55:42;7.80;64.30
12901;DHT22;6518;50.930;5.344;2023-04-03T09:58:24;7.80;64.90
12901;DHT22;6518;50.930;5.344;2023-04-03T10:00:56;7.90;65.50
12901;DHT22;6518;50.930;5.344;2023-04-03T10:03:27;7.90;62.60
12901;DHT22;6518;50.930;5.344;2023-04-03T10:05:54;7.90;62.90
12901;DHT22;6518;50.930;5.344;2023-04-03T10:08:25;7.90;63.60
12901;DHT22;6518;50.930;5.344;2023-04-03T10:11:13;8.00;63.00
12901;DHT22;6518;50.930;5.344;2023-04-03T10:13:54;8.10;61.20
12901;DHT22;6518;50.930;5.344;2023-04-03T10:16:27;8.10;59.60
12901;DHT22;6518;50.930;5.344;2023-04-03T10:19:05;8.10;57.30
12901;DHT22;6518;50.930;5.344;2023-04-03T10:21:40;8.10;57.00
12901;DHT22;6518;50.930;5.344;2023-04-03T10:24:14;8.20;57.00
12901;DHT22;6518;50.930;5.344;2023-04-03T10:26:52;8.10;55.10
12901;DHT22;6518;50.930;5.344;2023-04-03T10:29:34;8.30;54.20
12901;DHT22;6518;50.930;5.344;2023-04-03T10:32:26;8.50;53.20
12901;DHT22;6518;50.930;5.344;2023-04-03T10:35:00;8.50;52.70
12901;DHT22;6518;50.930;5.344;2023-04-03T10:37:32;8.50;52.00
12901;DHT22;6518;50.930;5.344;2023-04-03T10:40:11;8.40;52.00
12901;DHT22;6518;50.930;5.344;2023-04-03T10:42:44;8.50;51.90
12901;DHT22;6518;50.930;5.344;2023-04-03T10:45:21;8.60;52.60
12901;DHT22;6518;50.930;5.344;2023-04-03T10:47:58;8.60;53.40
12901;DHT22;6518;50.930;5.344;2023-04-03T10:50:36;8.70;52.50
12901;DHT22;6518;50.930;5.344;2023-04-03T10:53:08;8.70;51.90
12901;DHT22;6518;50.930;5.344;2023-04-03T10:55:42;8.70;51.40
12901;DHT22;6518;50.930;5.344;2023-04-03T10:58:20;8.70;50.60
12901;DHT22;6518;50.930;5.344;2023-04-03T11:00:49;8.70;51.00
12901;DHT22;6518;50.930;5.344;2023-04-03T11:03:26;8.80;49.70
12901;DHT22;6518;50.930;5.344;2023-04-03T11:05:57;8.80;51.40
12901;DHT22;6518;50.930;5.344;2023-04-03T11:08:29;8.90;52.00
12901;DHT22;6518;50.930;5.344;2023-04-03T11:11:06;9.00;51.60
12901;DHT22;6518;50.930;5.344;2023-04-03T11:13:41;9.10;53.00
12901;DHT22;6518;50.930;5.344;2023-04-03T11:16:13;9.20;51.80
12901;DHT22;6518;50.930;5.344;2023-04-03T11:18:47;9.30;51.10
12901;DHT22;6518;50.930;5.344;2023-04-03T11:21:20;9.40;48.20
12901;DHT22;6518;50.930;5.344;2023-04-03T11:23:48;9.40;48.80
12901;DHT22;6518;50.930;5.344;2023-04-03T11:26:17;9.40;48.50
12901;DHT22;6518;50.930;5.344;2023-04-03T11:28:46;9.40;48.70
12901;DHT22;6518;50.930;5.344;2023-04-03T11:31:33;9.50;47.80
12901;DHT22;6518;50.930;5.344;2023-04-03T11:34:25;9.50;48.90
12901;DHT22;6518;50.930;5.344;2023-04-03T11:36:55;9.40;50.10
12901;DHT22;6518;50.930;5.344;2023-04-03T11:39:25;9.40;49.40
12901;DHT22;6518;50.930;5.344;2023-04-03T11:41:53;9.50;49.30
12901;DHT22;6518;50.930;5.344;2023-04-03T11:44:35;9.50;48.60
12901;DHT22;6518;50.930;5.344;2023-04-03T11:47:03;9.50;49.10
12901;DHT22;6518;50.930;5.344;2023-04-03T11:49:56;9.50;49.90
12901;DHT22;6518;50.930;5.344;2023-04-03T11:53:01;9.50;49.90
12901;DHT22;6518;50.930;5.344;2023-04-03T11:55:54;9.60;49.10
12901;DHT22;6518;50.930;5.344;2023-04-03T11:58:22;9.50;49.00
12901;DHT22;6518;50.930;5.344;2023-04-03T12:06:53;9.50;48.90
12901;DHT22;6518;50.930;5.344;2023-04-03T12:09:33;10.40;49.10
12901;DHT22;6518;50.930;5.344;2023-04-03T12:12:23;9.50;49.20
12901;DHT22;6518;50.930;5.344;2023-04-03T12:14:51;9.60;49.90
12901;DHT22;6518;50.930;5.344;2023-04-03T12:17:22;9.60;49.80
12901;DHT22;6518;50.930;5.344;2023-04-03T12:19:51;9.60;49.70
12901;DHT22;6518;50.930;5.344;2023-04-03T12:22:20;9.60;48.90
12901;DHT22;6518;50.930;5.344;2023-04-03T12:24:49;9.60;48.80
12901;DHT22;6518;50.930;5.344;2023-04-03T12:27:24;9.70;48.10
12901;DHT22;6518;50.930;5.344;2023-04-03T12:29:56;9.70;47.90
12901;DHT22;6518;50.930;5.344;2023-04-03T12:32:37;9.70;48.10
12901;DHT22;6518;50.930;5.344;2023-04-03T12:35:19;9.70;48.20
12901;DHT22;6518;50.930;5.344;2023-04-03T12:41:18;9.80;47.70
12901;DHT22;6518;50.930;5.344;2023-04-03T12:43:55;9.70;47.20
12901;DHT22;6518;50.930;5.344;2023-04-03T12:46:28;9.70;47.90
12901;DHT22;6518;50.930;5.344;2023-04-03T12:49:00;9.60;48.60
12901;DHT22;6518;50.930;5.344;2023-04-03T12:51:30;9.70;47.80
12901;DHT22;6518;50.930;5.344;2023-04-03T12:54:03;9.70;47.20
12901;DHT22;6518;50.930;5.344;2023-04-03T12:56:32;9.70;47.70
12901;DHT22;6518;50.930;5.344;2023-04-03T12:59:14;9.70;48.30
12901;DHT22;6518;50.930;5.344;2023-04-03T13:01:42;9.70;47.40
12901;DHT22;6518;50.930;5.344;2023-04-03T13:04:10;9.60;48.10
12901;DHT22;6518;50.930;5.344;2023-04-03T13:06:39;9.60;49.30
12901;DHT22;6518;50.930;5.344;2023-04-03T13:09:19;9.40;49.10
12901;DHT22;6518;50.930;5.344;2023-04-03T13:11:49;9.70;48.60
12901;DHT22;6518;50.930;5.344;2023-04-03T13:14:19;9.80;48.90
12901;DHT22;6518;50.930;5.344;2023-04-03T13:16:53;9.70;49.20
12901;DHT22;6518;50.930;5.344;2023-04-03T13:19:20;9.70;49.30
12901;DHT22;6518;50.930;5.344;2023-04-03T13:21:49;9.70;49.50
12901;DHT22;6518;50.930;5.344;2023-04-03T13:24:18;9.80;49.00
12901;DHT22;6518;50.930;5.344;2023-04-03T13:26:47;9.80;48.80
12901;DHT22;6518;50.930;5.344;2023-04-03T13:29:22;9.80;49.50
12901;DHT22;6518;50.930;5.344;2023-04-03T13:31:52;9.90;49.30
12901;DHT22;6518;50.930;5.344;2023-04-03T13:34:22;10.00;49.70
12901;DHT22;6518;50.930;5.344;2023-04-03T13:36:57;10.00;50.20
12901;DHT22;6518;50.930;5.344;2023-04-03T13:39:26;10.00;50.40
12901;DHT22;6518;50.930;5.344;2023-04-03T13:41:57;10.00;49.70
12901;DHT22;6518;50.930;5.344;2023-04-03T13:44:30;10.00;50.60
12901;DHT22;6518;50.930;5.344;2023-04-03T13:46:59;10.10;49.30
12901;DHT22;6518;50.930;5.344;2023-04-03T13:49:33;10.10;49.60
12901;DHT22;6518;50.930;5.344;2023-04-03T13:52:17;10.10;50.10
12901;DHT22;6518;50.930;5.344;2023-04-03T13:54:52;10.10;50.40
12901;DHT22;6518;50.930;5.344;2023-04-03T13:57:21;10.10;50.40
12901;DHT22;6518;50.930;5.344;2023-04-03T13:59:48;10.10;50.60
12901;DHT22;6518;50.930;5.344;2023-04-03T14:02:18;10.20;50.30
12901;DHT22;6518;50.930;5.344;2023-04-03T14:04:49;10.10;50.60
12901;DHT22;6518;50.930;5.344;2023-04-03T14:07:19;10.10;50.70
12901;DHT22;6518;50.930;5.344;2023-04-03T14:09:47;10.10;50.90
12901;DHT22;6518;50.930;5.344;2023-04-03T14:12:17;10.10;50.60
12901;DHT22;6518;50.930;5.344;2023-04-03T14:14:46;10.20;49.30
12901;DHT22;6518;50.930;5.344;2023-04-03T14:17:15;10.20;49.40
12901;DHT22;6518;50.930;5.344;2023-04-03T14:19:43;10.20;49.80
12901;DHT22;6518;50.930;5.344;2023-04-03T14:22:14;10.20;49.90
12901;DHT22;6518;50.930;5.344;2023-04-03T14:24:41;10.20;50.00
12901;DHT22;6518;50.930;5.344;2023-04-03T14:27:16;10.20;50.50
12901;DHT22;6518;50.930;5.344;2023-04-03T14:29:43;10.20;49.90
12901;DHT22;6518;50.930;5.344;2023-04-03T14:32:12;10.30;49.40
12901;DHT22;6518;50.930;5.344;2023-04-03T14:34:42;10.90;50.10
12901;DHT22;6518;50.930;5.344;2023-04-03T14:37:11;10.30;49.00
12901;DHT22;6518;50.930;5.344;2023-04-03T14:39:39;10.30;49.40
12901;DHT22;6518;50.930;5.344;2023-04-03T14:42:09;10.40;49.40
12901;DHT22;6518;50.930;5.344;2023-04-03T14:44:36;10.30;49.70
12901;DHT22;6518;50.930;5.344;2023-04-03T14:47:04;10.40;49.60
12901;DHT22;6518;50.930;5.344;2023-04-03T14:49:32;10.40;49.30
12901;DHT22;6518;50.930;5.344;2023-04-03T14:51:59;10.40;49.50
12901;DHT22;6518;50.930;5.344;2023-04-03T14:54:26;10.40;49.60
12901;DHT22;6518;50.930;5.344;2023-04-03T14:56:53;10.50;49.30
12901;DHT22;6518;50.930;5.344;2023-04-03T14:59:22;10.50;49.10
12901;DHT22;6518;50.930;5.344;2023-04-03T15:01:49;10.50;49.90
12901;DHT22;6518;50.930;5.344;2023-04-03T15:04:17;10.50;49.70
12901;DHT22;6518;50.930;5.344;2023-04-03T15:06:46;10.40;49.70
12901;DHT22;6518;50.930;5.344;2023-04-03T15:09:20;10.40;49.90
12901;DHT22;6518;50.930;5.344;2023-04-03T15:11:47;10.40;50.00
12901;DHT22;6518;50.930;5.344;2023-04-03T15:14:14;10.40;49.90
12901;DHT22;6518;50.930;5.344;2023-04-03T15:16:41;10.50;49.60
12901;DHT22;6518;50.930;5.344;2023-04-03T15:19:08;10.50;49.80
12901;DHT22;6518;50.930;5.344;2023-04-03T15:21:35;10.50;49.80
12901;DHT22;6518;50.930;5.344;2023-04-03T15:24:03;10.50;50.00
12901;DHT22;6518;50.930;5.344;2023-04-03T15:26:30;10.40;50.00
12901;DHT22;6518;50.930;5.344;2023-04-03T15:28:58;10.50;50.00
12901;DHT22;6518;50.930;5.344;2023-04-03T15:31:25;10.50;49.80
12901;DHT22;6518;50.930;5.344;2023-04-03T15:33:51;10.40;50.00
12901;DHT22;6518;50.930;5.344;2023-04-03T15:36:18;10.50;49.90
12901;DHT22;6518;50.930;5.344;2023-04-03T15:38:45;10.40;49.70
12901;DHT22;6518;50.930;5.344;2023-04-03T15:41:13;10.50;49.50
12901;DHT22;6518;50.930;5.344;2023-04-03T15:43:40;10.40;49.10
12901;DHT22;6518;50.930;5.344;2023-04-03T15:46:08;10.40;49.30
12901;DHT22;6518;50.930;5.344;2023-04-03T15:48:39;10.40;49.50
12901;DHT22;6518;50.930;5.344;2023-04-03T15:51:11;10.40;49.30
12901;DHT22;6518;50.930;5.344;2023-04-03T15:53:41;10.70;49.50
12901;DHT22;6518;50.930;5.344;2023-04-03T15:56:08;10.40;49.50
12901;DHT22;6518;50.930;5.344;2023-04-03T15:58:38;10.40;49.50
12901;DHT22;6518;50.930;5.344;2023-04-03T16:01:09;10.30;49.40
12901;DHT22;6518;50.930;5.344;2023-04-03T16:03:39;10.30;49.50
12901;DHT22;6518;50.930;5.344;2023-04-03T16:06:10;12.50;50.30
12901;DHT22;6518;50.930;5.344;2023-04-03T16:08:40;10.30;49.20
12901;DHT22;6518;50.930;5.344;2023-04-03T16:11:10;10.30;49.20
12901;DHT22;6518;50.930;5.344;2023-04-03T16:13:38;10.20;49.60
12901;DHT22;6518;50.930;5.344;2023-04-03T16:16:08;10.30;49.40
12901;DHT22;6518;50.930;5.344;2023-04-03T16:18:38;10.30;49.30
12901;DHT22;6518;50.930;5.344;2023-04-03T16:21:09;10.30;49.20
12901;DHT22;6518;50.930;5.344;2023-04-03T16:23:40;10.20;49.40
12901;DHT22;6518;50.930;5.344;2023-04-03T16:26:09;10.20;49.10